Time;durP1;ratioP1;P1;durP2;ratioP2;P2;SDS_P1;SDS_P2;PMS_P1;PMS_P2;Temp;Humidity;BMP_temperature;BMP_pressure;BME280_temperature;BME280_humidity;BME280_pressure;Samples;Min_cycle;Max_cycle;Signal;HPM_P1;HPM_P2
2021/10/05 00:00:47;;;;;;;19.65;13.18;;;13.70;95.10;;;13.89;70.13;97448.88;5049624;28;20049;-37
2021/10/05 00:03:15;;;;;;;19.73;14.52;;;13.70;95.10;;;13.89;70.33;97450.72;5048124;28;20367;-37
2021/10/05 00:05:43;;;;;;;20.75;15.63;;;13.70;95.00;;;13.88;70.24;97449.06;5046964;28;20063;-37
2021/10/05 00:08:11;;;;;;;19.40;14.13;;;13.70;95.10;;;13.87;70.20;97453.59;5046947;28;20049;-37
2021/10/05 00:10:39;;;;;;;21.35;13.98;;;13.70;95.30;;;13.86;70.17;97448.41;5047852;28;20053;-37
2021/10/05 00:13:07;;;;;;;22.58;15.50;;;13.70;95.30;;;13.86;70.33;97446.59;5046556;28;20051;-37
2021/10/05 00:15:35;;;;;;;19.85;14.02;;;13.70;95.50;;;13.87;70.57;97455.44;5048255;28;20087;-37
2021/10/05 00:18:03;;;;;;;21.35;15.52;;;13.70;95.40;;;13.87;70.49;97452.75;5048029;28;20689;-37
2021/10/05 00:20:31;;;;;;;18.30;13.63;;;13.70;95.60;;;13.87;70.52;97437.53;5048166;28;20431;-37
2021/10/05 00:22:59;;;;;;;20.85;13.80;;;13.70;95.60;;;13.87;70.44;97445.56;5047539;28;20061;-37
2021/10/05 00:25:28;;;;;;;23.45;16.00;;;13.70;95.70;;;13.88;70.73;97446.38;5046492;28;20053;-37
2021/10/05 00:27:56;;;;;;;21.23;15.13;;;13.70;95.80;;;13.88;70.60;97443.69;5048740;28;20258;-37
2021/10/05 00:30:25;;;;;;;17.58;14.50;;;13.70;95.60;;;13.86;70.40;97443.06;5047552;28;20559;-37
2021/10/05 00:32:53;;;;;;;20.73;15.07;;;13.70;95.50;;;13.86;70.49;97427.00;5048266;28;20056;-37
2021/10/05 00:35:22;;;;;;;20.65;15.02;;;13.60;95.40;;;13.83;70.57;97419.38;5046862;28;20074;-37
2021/10/05 00:37:50;;;;;;;24.10;15.35;;;13.60;95.90;;;13.83;70.77;97419.38;5046647;28;20067;-37
2021/10/05 00:40:18;;;;;;;22.65;16.10;;;13.60;96.20;;;13.82;70.69;97415.84;5047058;28;20347;-37
2021/10/05 00:42:46;;;;;;;22.73;15.32;;;13.60;96.30;;;13.83;70.82;97409.50;5047483;28;20467;-37
2021/10/05 00:45:13;;;;;;;20.38;14.68;;;13.70;96.50;;;13.85;70.77;97403.94;5047465;28;20243;-37
2021/10/05 00:47:41;;;;;;;20.33;15.32;;;13.70;96.20;;;13.83;70.73;97403.31;5047155;28;20560;-37
2021/10/05 00:50:14;;;;;;;22.45;14.73;;;13.70;96.10;;;13.81;70.78;97391.97;5048135;28;20059;-37
2021/10/05 00:52:43;;;;;;;21.73;15.32;;;13.60;96.40;;;13.77;70.84;97386.16;5045675;28;20059;-37
2021/10/05 00:55:12;;;;;;;23.20;15.13;;;13.60;96.80;;;13.74;70.70;97381.19;5047599;28;20049;-37
2021/10/05 00:57:52;;;;;;;21.90;15.43;;;13.50;97.00;;;13.68;70.94;97377.41;5046421;28;20048;-37
2021/10/05 01:00:24;;;;;;;20.98;14.88;;;13.50;97.20;;;13.66;71.13;97376.75;5046531;28;20359;-37
2021/10/05 01:02:53;;;;;;;20.90;15.15;;;13.50;97.60;;;13.71;71.25;97374.38;5046144;28;20048;-37
2021/10/05 01:05:22;;;;;;;22.85;16.08;;;13.50;97.60;;;13.73;71.29;97366.97;5046159;28;20057;-37
2021/10/05 01:07:50;;;;;;;19.85;14.15;;;13.60;97.60;;;13.75;71.41;97359.59;5047379;28;20052;-37
2021/10/05 01:10:19;;;;;;;21.17;15.82;;;13.60;97.50;;;13.77;71.69;97344.19;5048214;28;20394;-37
2021/10/05 01:12:50;;;;;;;22.27;15.30;;;13.60;97.30;;;13.78;71.23;97331.63;5047865;28;20051;-37
2021/10/05 01:15:25;;;;;;;21.40;14.65;;;13.60;97.10;;;13.77;71.28;97338.81;5047824;28;20347;-37
2021/10/05 01:17:58;;;;;;;22.67;16.42;;;13.60;97.00;;;13.77;71.09;97328.13;5047113;28;20213;-37
2021/10/05 01:20:27;;;;;;;24.27;15.18;;;13.60;97.20;;;13.77;71.37;97333.47;5046292;28;20063;-36
2021/10/05 01:22:55;;;;;;;20.50;15.25;;;13.60;97.50;;;13.78;71.40;97332.47;5046198;28;20049;-37
2021/10/05 01:25:24;;;;;;;21.50;14.57;;;13.60;97.60;;;13.77;71.40;97317.44;5046182;28;20057;-37
2021/10/05 01:27:53;;;;;;;22.20;15.80;;;13.60;97.60;;;13.76;71.20;97328.31;5046616;28;20063;-37
2021/10/05 01:30:23;;;;;;;24.08;15.52;;;13.60;97.50;;;13.76;71.43;97322.97;5046167;28;20057;-37
2021/10/05 01:32:50;;;;;;;24.95;15.48;;;13.60;97.50;;;13.77;71.37;97329.97;5045208;28;20067;-37
2021/10/05 01:35:19;;;;;;;22.80;15.82;;;13.60;97.40;;;13.75;71.28;97314.13;5045738;28;20355;-37
2021/10/05 01:37:47;;;;;;;26.02;15.98;;;13.60;97.40;;;13.72;71.38;97325.19;5046296;28;20041;-37
2021/10/05 01:40:16;;;;;;;23.63;16.05;;;13.50;97.80;;;13.69;71.56;97324.75;5047441;28;20049;-37
2021/10/05 01:42:43;;;;;;;24.58;15.68;;;13.50;98.30;;;13.67;71.52;97324.13;5046038;28;20406;-37
2021/10/05 01:45:11;;;;;;;21.83;14.32;;;13.40;98.20;;;13.61;71.60;97320.34;5046690;28;20049;-37
2021/10/05 01:47:40;;;;;;;24.40;15.38;;;13.30;99.20;;;13.56;71.59;97322.75;5046297;28;20041;-37
2021/10/05 01:50:08;;;;;;;20.35;13.90;;;13.20;99.00;;;13.51;71.65;97314.44;5047405;28;20056;-37
2021/10/05 01:52:36;;;;;;;21.50;15.57;;;13.20;98.90;;;13.49;71.90;97317.34;5046618;28;20056;-37
2021/10/05 01:55:09;;;;;;;25.23;16.23;;;13.20;99.30;;;13.47;71.90;97318.50;5046434;28;20051;-37
2021/10/05 01:57:37;;;;;;;26.52;17.50;;;13.20;99.60;;;13.50;72.03;97328.84;5045751;28;20059;-37
2021/10/05 02:00:07;;;;;;;26.70;17.23;;;13.20;99.40;;;13.47;72.15;97319.34;5046845;28;20060;-37
2021/10/05 02:02:35;;;;;;;24.95;15.38;;;13.20;99.70;;;13.48;72.22;97321.00;5046676;28;20049;-37
2021/10/05 02:05:05;;;;;;;24.42;15.50;;;13.20;99.70;;;13.48;72.09;97318.34;5046248;28;20534;-37
2021/10/05 02:07:35;;;;;;;22.98;14.48;;;13.20;99.40;;;13.43;72.26;97314.56;5045596;28;20065;-37
2021/10/05 02:10:07;;;;;;;24.90;15.00;;;13.20;99.70;;;13.42;72.25;97324.44;5046723;28;20380;-37
2021/10/05 02:12:35;;;;;;;21.65;14.60;;;13.20;99.90;;;13.43;72.27;97323.41;5044913;28;20053;-37
2021/10/05 02:15:06;;;;;;;22.25;14.38;;;13.20;99.80;;;13.41;72.33;97325.44;5046421;28;20049;-37
2021/10/05 02:17:34;;;;;;;25.05;14.93;;;13.10;99.90;;;13.43;72.43;97323.41;5044969;28;20351;-37
2021/10/05 02:20:04;;;;;;;26.38;14.75;;;13.20;99.90;;;13.43;72.47;97317.22;5045152;28;20045;-37
2021/10/05 02:22:34;;;;;;;19.80;13.05;;;13.20;99.80;;;13.44;72.37;97305.53;5045379;28;20574;-37
2021/10/05 02:25:03;;;;;;;18.45;12.35;;;13.20;99.60;;;13.44;72.47;97301.00;5045818;28;20049;-37
2021/10/05 02:27:31;;;;;;;19.38;12.68;;;13.20;99.80;;;13.45;72.48;97294.63;5046551;28;20059;-37
2021/10/05 02:30:00;;;;;;;18.35;12.23;;;13.20;99.90;;;13.47;72.49;97300.63;5047243;28;20071;-37
2021/10/05 02:32:27;;;;;;;16.10;11.63;;;13.20;99.90;;;13.43;72.57;97291.31;5045278;28;20521;-37
2021/10/05 02:34:56;;;;;;;18.23;11.30;;;13.20;99.90;;;13.41;72.59;97281.84;5044122;28;20044;-37
2021/10/05 02:37:29;;;;;;;15.95;10.80;;;13.10;99.90;;;13.39;72.56;97282.84;5045765;28;20053;-37
2021/10/05 02:39:59;;;;;;;15.65;10.90;;;13.10;99.90;;;13.37;72.52;97279.53;5045903;28;20239;-37
2021/10/05 02:42:27;;;;;;;18.23;10.82;;;13.10;99.90;;;13.36;72.62;97279.72;5044224;28;20343;-37
2021/10/05 02:44:55;;;;;;;17.35;11.07;;;13.00;99.90;;;13.35;72.71;97272.72;5044237;28;20061;-37
2021/10/05 02:47:24;;;;;;;13.95;10.15;;;13.00;99.90;;;13.34;72.74;97265.72;5045444;28;20402;-37
2021/10/05 02:49:52;;;;;;;15.55;10.68;;;13.00;99.90;;;13.37;72.88;97265.34;5048048;28;20052;-37
2021/10/05 02:52:22;;;;;;;19.25;11.43;;;13.10;99.90;;;13.37;72.97;97265.34;5045322;28;20052;-37
2021/10/05 02:54:51;;;;;;;18.42;11.82;;;13.10;99.90;;;13.33;72.89;97269.41;5045746;28;20051;-37
2021/10/05 02:57:21;;;;;;;18.00;11.75;;;13.00;99.90;;;13.33;72.93;97270.22;5044133;28;20057;-37
2021/10/05 02:59:49;;;;;;;20.15;12.57;;;13.10;99.90;;;13.36;72.90;97269.88;5044197;28;20061;-37
2021/10/05 03:02:17;;;;;;;17.88;11.18;;;13.10;99.90;;;13.36;72.94;97269.03;5044169;28;20347;-37
2021/10/05 03:04:45;;;;;;;15.75;10.50;;;13.10;99.90;;;13.34;73.18;97265.72;5043384;28;20393;-37
2021/10/05 03:07:13;;;;;;;19.17;10.90;;;13.10;99.90;;;13.32;72.94;97265.09;5043950;28;20052;-37
2021/10/05 03:09:41;;;;;;;17.10;11.45;;;13.00;99.90;;;13.30;72.80;97261.75;5045753;28;20068;-37
2021/10/05 03:12:09;;;;;;;18.95;11.52;;;13.00;99.90;;;13.31;73.12;97258.91;5044448;28;20056;-37
2021/10/05 03:14:37;;;;;;;20.50;13.77;;;13.00;99.90;;;13.29;72.98;97252.06;5045227;28;20243;-37
2021/10/05 03:17:05;;;;;;;19.88;13.05;;;13.00;99.90;;;13.25;73.07;97248.91;5044543;28;20094;-37
2021/10/05 03:19:33;;;;;;;19.20;13.27;;;12.90;99.90;;;13.28;72.94;97250.38;5044794;28;20324;-37
2021/10/05 03:22:01;;;;;;;18.58;13.35;;;13.00;99.90;;;13.30;73.14;97249.22;5044296;28;20048;-37
2021/10/05 03:24:29;;;;;;;20.30;14.55;;;13.00;99.90;;;13.31;73.07;97252.72;5044087;28;20059;-37
2021/10/05 03:26:57;;;;;;;22.58;13.25;;;13.00;99.90;;;13.30;73.24;97251.91;5044543;28;20053;-37
2021/10/05 03:29:25;;;;;;;22.30;12.27;;;13.00;99.90;;;13.29;72.92;97246.72;5045034;28;20257;-37
2021/10/05 03:31:52;;;;;;;24.10;14.27;;;12.90;99.90;;;13.29;73.11;97239.50;5048541;28;20059;-37
2021/10/05 03:34:21;;;;;;;20.83;13.18;;;13.00;99.90;;;13.30;73.01;97243.03;5048921;28;20263;-37
2021/10/05 03:36:50;;;;;;;24.38;14.57;;;13.00;99.90;;;13.22;73.19;97240.44;5049058;28;20522;-37
2021/10/05 03:39:18;;;;;;;26.55;14.85;;;12.90;99.90;;;13.17;73.30;97244.50;5047942;28;20055;-37
2021/10/05 03:41:46;;;;;;;28.88;15.30;;;12.80;99.90;;;13.15;73.32;97237.72;5047014;28;20251;-37
2021/10/05 03:44:14;;;;;;;25.98;15.20;;;12.80;99.90;;;13.11;73.37;97234.56;5048255;28;20060;-37
2021/10/05 03:46:42;;;;;;;24.85;14.60;;;12.70;99.90;;;13.09;73.49;97235.78;5047784;28;20066;-37
2021/10/05 03:49:10;;;;;;;24.13;14.02;;;12.70;99.90;;;13.06;73.31;97231.63;5048848;28;20356;-37
2021/10/05 03:51:38;;;;;;;23.63;14.05;;;12.70;99.90;;;13.05;73.53;97232.66;5048745;28;20255;-37
2021/10/05 03:54:06;;;;;;;24.55;13.65;;;12.70;99.90;;;13.05;73.72;97235.34;5048171;28;20052;-37
2021/10/05 03:56:34;;;;;;;25.45;14.35;;;12.70;99.90;;;13.09;73.63;97236.59;5048247;28;20056;-37
2021/10/05 03:59:02;;;;;;;24.73;14.80;;;12.80;99.90;;;13.10;73.81;97232.09;5048789;28;20057;-37
2021/10/05 04:01:30;;;;;;;23.80;15.15;;;12.80;99.90;;;13.08;73.66;97221.56;5051947;28;20445;-37
2021/10/05 04:03:58;;;;;;;21.65;13.85;;;12.80;99.90;;;13.06;73.66;97231.63;5049290;28;20057;-37
2021/10/05 04:06:25;;;;;;;23.40;14.25;;;12.70;99.90;;;13.09;73.74;97223.25;5050030;28;20401;-37
2021/10/05 04:08:53;;;;;;;21.95;13.00;;;12.80;99.90;;;13.11;73.76;97234.56;5046987;28;20051;-37
2021/10/05 04:11:21;;;;;;;24.27;14.73;;;12.90;99.90;;;13.14;73.94;97244.06;5047758;28;20240;-37
2021/10/05 04:13:49;;;;;;;24.17;13.93;;;12.90;99.90;;;13.17;73.75;97251.72;5047290;28;20064;-37
2021/10/05 04:16:17;;;;;;;22.27;13.18;;;12.90;99.90;;;13.19;73.76;97247.00;5046078;28;20339;-37
2021/10/05 04:18:45;;;;;;;23.55;14.07;;;12.90;99.90;;;13.16;73.67;97250.88;5046782;28;20210;-37
2021/10/05 04:21:13;;;;;;;26.15;14.15;;;12.80;99.90;;;13.18;73.54;97248.84;5048903;28;20052;-37
2021/10/05 04:23:41;;;;;;;23.30;13.55;;;12.90;99.90;;;13.19;73.56;97255.84;5048369;28;20051;-37
2021/10/05 04:26:08;;;;;;;21.63;12.43;;;12.90;99.90;;;13.19;73.63;97247.00;5048323;28;20053;-37
2021/10/05 04:28:36;;;;;;;20.48;13.38;;;12.90;99.90;;;13.19;73.72;97234.47;5048309;28;20514;-37
2021/10/05 04:31:05;;;;;;;21.02;13.10;;;12.90;99.90;;;13.23;73.81;97236.78;5049144;28;20053;-37
2021/10/05 04:33:35;;;;;;;23.92;14.10;;;13.00;99.90;;;13.25;73.83;97243.56;5047755;28;20437;-37
2021/10/05 04:36:03;;;;;;;20.58;12.73;;;13.00;99.90;;;13.25;73.77;97240.91;5047835;28;20243;-37
2021/10/05 04:38:31;;;;;;;19.38;12.45;;;13.00;99.90;;;13.26;73.77;97225.69;5047387;28;20044;-37
2021/10/05 04:40:59;;;;;;;18.77;11.50;;;13.00;99.90;;;13.26;73.99;97221.19;5049152;28;20055;-37
2021/10/05 04:43:27;;;;;;;21.83;12.32;;;13.00;99.90;;;13.27;73.93;97238.88;5046829;28;20057;-37
2021/10/05 04:45:55;;;;;;;19.75;12.02;;;13.10;99.90;;;13.29;73.74;97225.31;5046143;28;20045;-36
2021/10/05 04:48:23;;;;;;;19.30;11.75;;;13.10;99.90;;;13.29;73.81;97231.50;5045456;28;20057;-37
2021/10/05 04:50:51;;;;;;;21.23;13.73;;;13.00;99.90;;;13.30;73.58;97227.00;5048870;28;20083;-37
2021/10/05 04:53:19;;;;;;;22.75;14.38;;;13.00;99.90;;;13.28;73.63;97220.97;5046826;28;20220;-37
2021/10/05 04:55:48;;;;;;;22.52;12.48;;;12.90;99.90;;;13.27;73.55;97214.00;5046564;28;20059;-37
2021/10/05 04:58:16;;;;;;;20.92;13.38;;;13.00;99.90;;;13.16;73.76;97205.47;5046300;28;20067;-37
2021/10/05 05:00:44;;;;;;;23.58;13.77;;;12.80;99.90;;;13.17;73.68;97208.94;5048589;28;20040;-37
2021/10/05 05:03:12;;;;;;;20.92;12.80;;;12.80;99.90;;;13.12;73.92;97201.47;5047616;28;20053;-37
2021/10/05 05:05:40;;;;;;;20.45;13.32;;;12.80;99.90;;;13.13;73.84;97202.31;5046085;28;20256;-36
2021/10/05 05:08:08;;;;;;;25.33;14.07;;;12.80;99.90;;;13.13;74.00;97203.16;5047183;28;20060;-36
2021/10/05 05:10:35;;;;;;;23.00;13.95;;;12.80;99.90;;;13.14;74.01;97191.47;5047095;28;20064;-37
2021/10/05 05:13:03;;;;;;;23.15;14.40;;;12.80;99.90;;;13.15;73.80;97184.25;5047171;28;20243;-37
2021/10/05 05:15:31;;;;;;;24.10;14.18;;;12.90;99.90;;;13.15;73.81;97177.06;5046383;28;20041;-37
2021/10/05 05:17:59;;;;;;;24.75;14.10;;;12.90;99.90;;;13.19;74.03;97174.84;5046367;28;20052;-37
2021/10/05 05:20:27;;;;;;;23.27;13.52;;;12.90;99.90;;;13.21;74.01;97178.16;5046952;28;20048;-36
2021/10/05 05:22:55;;;;;;;21.40;11.80;;;12.90;99.90;;;13.20;73.87;97169.31;5047503;28;20067;-36
2021/10/05 05:25:24;;;;;;;21.02;12.63;;;13.00;99.90;;;13.15;73.93;97174.38;5044665;28;20060;-36
2021/10/05 05:27:52;;;;;;;26.05;14.52;;;12.80;99.90;;;13.17;73.88;97179.53;5045058;28;20063;-37
2021/10/05 05:30:21;;;;;;;25.42;13.88;;;12.90;99.90;;;13.14;73.87;97182.59;5047692;28;20051;-37
2021/10/05 05:32:49;;;;;;;19.15;11.90;;;12.80;99.90;;;13.13;73.68;97180.94;5044825;28;20064;-37
2021/10/05 05:35:16;;;;;;;24.42;13.10;;;12.80;99.90;;;13.05;74.23;97179.22;5046324;28;20044;-37
2021/10/05 05:37:44;;;;;;;22.27;12.45;;;12.70;99.90;;;13.06;74.01;97178.19;5046939;28;20056;-37
2021/10/05 05:40:13;;;;;;;27.05;12.70;;;12.70;99.90;;;13.04;74.24;97171.38;5046272;28;20048;-37
2021/10/05 05:42:41;;;;;;;22.20;14.43;;;12.70;99.90;;;13.07;74.16;97176.34;5043440;28;20049;-37
2021/10/05 05:45:09;;;;;;;30.35;14.45;;;12.80;99.90;;;13.07;74.08;97174.50;5046085;28;20053;-37
2021/10/05 05:47:38;;;;;;;25.10;11.90;;;12.80;99.90;;;13.09;74.01;97177.00;5046148;28;20057;-37
2021/10/05 05:50:09;;;;;;;24.15;13.15;;;12.80;99.90;;;13.09;73.87;97172.47;5046014;28;20060;-37
2021/10/05 05:52:36;;;;;;;26.88;13.85;;;12.80;99.90;;;13.08;74.00;97175.31;5045449;28;20060;-37
2021/10/05 05:55:05;;;;;;;23.80;13.32;;;12.70;99.90;;;13.05;74.04;97165.84;5043074;28;20071;-37
2021/10/05 05:57:33;;;;;;;27.25;13.48;;;12.70;99.90;;;13.07;74.26;97163.00;5046397;28;20044;-37
2021/10/05 06:00:03;;;;;;;31.00;17.42;;;12.80;99.90;;;13.11;74.17;97164.28;5046029;28;20063;-37
2021/10/05 06:02:38;;;;;;;23.52;13.82;;;12.90;99.90;;;13.12;74.12;97164.06;5051738;28;20045;-37
2021/10/05 06:05:07;;;;;;;22.98;13.25;;;12.90;99.90;;;13.13;74.26;97164.91;5046740;28;20063;-37
2021/10/05 06:07:35;;;;;;;25.27;12.57;;;12.90;99.90;;;13.13;74.29;97178.28;5044386;28;20055;-37
2021/10/05 06:10:05;;;;;;;23.90;13.43;;;12.90;99.90;;;13.13;74.36;97176.41;5046494;28;20047;-37
2021/10/05 06:12:38;;;;;;;25.23;12.90;;;12.90;99.90;;;13.17;74.23;97171.53;5045000;28;20065;-37
2021/10/05 06:15:16;;;;;;;18.60;11.43;;;13.00;99.90;;;13.19;74.12;97162.28;5045740;28;20347;-37
2021/10/05 06:17:50;;;;;;;18.00;10.55;;;13.00;99.90;;;13.24;74.04;97163.56;5045067;28;20582;-37
2021/10/05 06:20:28;;;;;;;21.63;12.05;;;13.10;99.90;;;13.28;73.93;97154.16;5046710;28;20110;-37
2021/10/05 06:22:57;;;;;;;20.58;13.55;;;13.10;99.90;;;13.30;74.08;97149.47;5045336;28;20076;-37
2021/10/05 06:25:29;;;;;;;19.60;11.60;;;13.20;99.90;;;13.31;74.07;97149.28;5045348;28;20052;-37
2021/10/05 06:27:58;;;;;;;18.92;11.10;;;13.20;99.90;;;13.33;74.04;97146.44;5046298;28;20044;-37
2021/10/05 06:30:28;;;;;;;21.02;12.35;;;13.20;99.90;;;13.34;74.17;97153.44;5045722;28;20053;-37
2021/10/05 06:32:56;;;;;;;21.80;11.25;;;13.20;99.90;;;13.37;74.12;97145.84;5045423;28;20055;-37
2021/10/05 06:35:30;;;;;;;21.92;12.13;;;13.20;99.90;;;13.40;74.26;97147.31;5044679;28;20057;-37
2021/10/05 06:38:00;;;;;;;17.95;11.32;;;13.20;99.90;;;13.41;74.16;97145.47;5056809;28;20049;-37
2021/10/05 06:40:33;;;;;;;17.20;9.88;;;13.20;99.90;;;13.42;74.08;97147.16;5060010;28;20227;-37
2021/10/05 06:43:02;;;;;;;20.00;10.32;;;13.20;99.90;;;13.42;74.19;97152.50;5056882;28;20075;-37
2021/10/05 06:45:30;;;;;;;22.20;11.73;;;13.20;99.90;;;13.42;74.21;97145.28;5052295;28;20049;-37
2021/10/05 06:47:59;;;;;;;18.58;10.10;;;13.20;99.90;;;13.43;74.02;97149.59;5067298;28;20258;-37
2021/10/05 06:50:30;;;;;;;16.50;10.43;;;13.20;99.90;;;13.44;73.99;97142.44;5060119;28;20037;-37
2021/10/05 06:52:59;;;;;;;16.63;9.30;;;13.20;99.90;;;13.45;73.89;97144.06;5060306;28;20240;-37
2021/10/05 06:55:27;;;;;;;17.75;9.57;;;13.30;99.90;;;13.44;74.07;97140.56;5056545;28;20055;-37
2021/10/05 06:57:56;;;;;;;16.05;9.30;;;13.20;99.90;;;13.46;73.89;97135.03;5033117;28;20041;-37
2021/10/05 07:00:24;;;;;;;14.10;8.27;;;13.20;99.90;;;13.44;73.89;97137.09;5038857;28;20552;-37
2021/10/05 07:02:52;;;;;;;17.58;9.63;;;13.20;99.90;;;13.43;74.01;97125.53;5044217;28;20045;-37
2021/10/05 07:05:21;;;;;;;14.88;9.80;;;13.20;99.90;;;13.46;74.04;97122.50;5030669;28;20051;-37
2021/10/05 07:07:51;;;;;;;15.13;9.88;;;13.30;99.90;;;13.49;74.06;97119.44;5024556;28;20522;-37
2021/10/05 07:10:22;;;;;;;14.95;9.38;;;13.30;99.90;;;13.52;74.13;97115.56;5026107;28;20359;-37
2021/10/05 07:12:51;;;;;;;14.82;8.98;;;13.40;99.90;;;13.57;74.18;97111.28;5036866;28;20232;-37
2021/10/05 07:15:20;;;;;;;14.57;8.98;;;13.50;99.90;;;13.64;74.13;97115.84;5046473;28;20056;-37
2021/10/05 07:17:53;;;;;;;17.38;9.50;;;13.50;99.90;;;13.69;74.22;97127.63;5044750;28;20053;-37
2021/10/05 07:20:28;;;;;;;13.52;9.38;;;13.60;99.90;;;13.71;73.98;97119.41;5045174;28;20048;-37
2021/10/05 07:22:58;;;;;;;15.82;9.88;;;13.60;99.90;;;13.76;74.11;97130.34;5045754;28;20059;-37
2021/10/05 07:25:29;;;;;;;14.30;8.70;;;13.60;99.90;;;13.79;74.03;97128.09;5044081;28;20067;-37
2021/10/05 07:27:58;;;;;;;16.23;9.65;;;13.60;99.90;;;13.79;74.02;97132.63;5044606;28;20063;-37
2021/10/05 07:30:28;;;;;;;15.02;9.50;;;13.70;99.90;;;13.83;73.97;97125.06;5046043;28;20048;-37
2021/10/05 07:33:02;;;;;;;12.73;8.85;;;13.70;99.90;;;13.86;73.95;97135.34;5045462;28;20056;-37
2021/10/05 07:35:31;;;;;;;15.10;9.00;;;13.80;99.90;;;13.87;74.05;97129.00;5043140;28;20259;-37
2021/10/05 07:37:59;;;;;;;15.15;8.57;;;13.70;99.90;;;13.89;73.91;97125.09;5041642;28;20064;-37
2021/10/05 07:40:30;;;;;;;14.90;8.57;;;13.70;99.90;;;13.90;73.90;97129.44;5044377;28;20418;-37
2021/10/05 07:43:00;;;;;;;15.85;8.98;;;13.70;99.90;;;13.89;73.81;97118.91;5025185;28;20060;-40
2021/10/05 07:45:32;;;;;;;14.45;8.88;;;13.70;99.90;;;13.92;73.89;97132.75;5024893;28;20049;-37
2021/10/05 07:48:00;;;;;;;17.80;9.80;;;13.80;99.90;;;13.94;73.96;97127.19;5023934;28;20053;-38
2021/10/05 07:50:28;;;;;;;17.23;9.57;;;13.80;99.90;;;13.97;73.54;97116.09;5025637;28;20071;-38
2021/10/05 07:53:02;;;;;;;20.45;11.23;;;13.80;99.90;;;13.98;73.73;97125.78;5024558;28;20059;-38
2021/10/05 07:55:31;;;;;;;15.95;9.23;;;13.90;99.90;;;14.01;73.80;97120.03;5040322;28;20239;-38
2021/10/05 07:58:01;;;;;;;13.55;8.57;;;13.90;99.90;;;14.04;73.53;97118.81;5044613;28;20339;-38
2021/10/05 08:00:29;;;;;;;15.68;9.85;;;13.90;99.90;;;14.05;73.71;97118.59;5040109;28;20044;-38
2021/10/05 08:02:57;;;;;;;16.35;9.95;;;13.90;99.90;;;14.08;73.64;97117.41;5042628;28;20056;-38
2021/10/05 08:05:27;;;;;;;14.15;8.52;;;14.00;99.90;;;14.06;73.44;97117.59;5042990;28;20051;-38
2021/10/05 08:08:05;;;;;;;15.45;9.85;;;13.90;99.70;;;14.06;73.41;97117.59;5043366;28;20060;-38
2021/10/05 08:10:41;;;;;;;15.38;9.68;;;13.90;99.50;;;14.06;73.49;97114.09;5040328;28;20057;-38
2021/10/05 08:13:09;;;;;;;15.75;9.65;;;13.90;99.90;;;14.07;73.55;97116.56;5039034;28;20235;-38
2021/10/05 08:15:38;;;;;;;14.18;9.07;;;13.90;99.90;;;14.12;73.66;97127.50;5038589;28;20347;-38
2021/10/05 08:18:06;;;;;;;12.35;8.43;;;13.90;99.90;;;14.14;73.42;97122.78;5042282;28;20379;-38
2021/10/05 08:20:34;;;;;;;12.57;8.18;;;14.00;99.90;;;14.17;73.32;97122.41;5048464;28;20058;-37
2021/10/05 08:23:03;;;;;;;13.85;9.02;;;14.00;99.70;;;14.18;73.40;97117.88;5048203;28;20381;-38
2021/10/05 08:25:31;;;;;;;13.00;8.15;;;14.00;99.70;;;14.18;72.81;97112.53;5047333;28;20049;-38
2021/10/05 08:28:00;;;;;;;11.70;7.65;;;14.00;99.50;;;14.16;73.09;97110.03;5047313;28;20063;-38
2021/10/05 08:30:28;;;;;;;15.10;8.73;;;14.10;99.20;;;14.22;73.18;97108.41;5046982;28;20057;-38
2021/10/05 08:32:56;;;;;;;13.75;7.80;;;14.10;99.10;;;14.23;72.98;97114.59;5047682;28;20355;-38
2021/10/05 08:35:25;;;;;;;12.07;7.65;;;14.10;98.80;;;14.24;73.02;97109.06;5049700;28;20049;-38
2021/10/05 08:37:53;;;;;;;12.13;7.55;;;14.10;99.30;;;14.27;73.14;97114.03;5046110;28;20056;-38
2021/10/05 08:40:21;;;;;;;11.00;7.65;;;14.10;99.10;;;14.30;73.01;97116.28;5048489;28;20550;-38
2021/10/05 08:42:50;;;;;;;12.13;7.75;;;14.20;99.10;;;14.31;73.03;97123.31;5044888;28;20053;-38
2021/10/05 08:45:19;;;;;;;9.25;6.97;;;14.20;98.80;;;14.30;72.85;97120.81;5041174;28;20052;-38
2021/10/05 08:47:48;;;;;;;9.23;6.95;;;14.20;98.60;;;14.30;72.69;97129.69;5046173;28;20040;-38
2021/10/05 08:50:18;;;;;;;11.60;7.90;;;14.20;98.40;;;14.29;72.67;97124.53;5048468;28;20049;-38
2021/10/05 08:52:46;;;;;;;9.10;6.32;;;14.20;97.90;;;14.30;72.61;97124.31;5044121;28;20057;-39
2021/10/05 08:55:14;;;;;;;13.23;7.32;;;14.20;98.20;;;14.33;72.75;97118.59;5045279;28;20064;-37
2021/10/05 08:57:42;;;;;;;9.52;6.55;;;14.30;98.20;;;14.36;72.51;97125.38;5048528;28;20063;-38
2021/10/05 09:00:11;;;;;;;10.73;6.57;;;14.30;98.40;;;14.38;72.54;97126.84;5048280;28;20061;-38
2021/10/05 09:02:54;;;;;;;9.57;6.40;;;14.30;98.50;;;14.39;72.45;97122.31;5046194;28;20254;-38
2021/10/05 09:05:26;;;;;;;9.85;6.47;;;14.30;98.00;;;14.43;72.48;97120.09;5047085;28;20143;-38
2021/10/05 09:07:57;;;;;;;9.48;5.93;;;14.30;98.00;;;14.47;72.54;97119.47;5046484;28;20057;-38
2021/10/05 09:10:33;;;;;;;12.30;6.50;;;14.40;98.20;;;14.50;72.62;97118.25;5047374;28;20055;-38
2021/10/05 09:13:02;;;;;;;8.75;5.93;;;14.40;98.20;;;14.51;72.36;97117.22;5045914;28;20053;-38
2021/10/05 09:15:32;;;;;;;10.00;6.22;;;14.40;98.20;;;14.53;72.42;97125.88;5047648;28;20375;-38
2021/10/05 09:18:01;;;;;;;7.20;5.32;;;14.40;97.80;;;14.55;72.19;97113.94;5044903;28;20045;-38
2021/10/05 09:20:34;;;;;;;9.68;5.95;;;14.40;98.00;;;14.60;72.47;97113.41;5026834;28;20047;-37
2021/10/05 09:23:13;;;;;;;8.77;5.32;;;14.50;98.00;;;14.64;72.36;97120.00;5026047;28;20049;-38
2021/10/05 09:25:50;;;;;;;7.15;4.60;;;14.50;97.70;;;14.65;72.47;97113.59;5026734;28;20051;-38
2021/10/05 09:28:23;;;;;;;6.05;4.00;;;14.60;97.50;;;14.70;72.00;97108.47;5026261;28;20067;-37
2021/10/05 09:31:05;;;;;;;7.78;4.70;;;14.60;97.10;;;14.73;72.04;97100.06;5026402;28;20059;-37
2021/10/05 09:33:35;;;;;;;8.60;4.13;;;14.70;97.10;;;14.79;72.05;97095.72;5026272;28;20369;-38
2021/10/05 09:36:06;;;;;;;7.82;4.55;;;14.70;97.20;;;14.86;72.07;97101.13;5027215;28;20053;-38
2021/10/05 09:38:34;;;;;;;6.50;4.20;;;14.80;97.00;;;14.89;71.86;97108.75;5026710;28;20063;-38
2021/10/05 09:41:09;;;;;;;6.38;4.43;;;14.80;96.80;;;14.90;71.69;97108.53;5031678;28;20058;-37
2021/10/05 09:43:37;;;;;;;8.25;5.13;;;14.80;96.40;;;14.93;71.86;97107.31;5058522;28;20053;-38
2021/10/05 09:46:20;;;;;;;7.10;4.78;;;14.90;97.00;;;14.93;71.05;97102.78;5043667;28;20063;-38
2021/10/05 09:48:59;;;;;;;7.35;5.03;;;14.80;95.80;;;14.97;71.39;97095.16;5045018;28;20380;-37
2021/10/05 09:51:28;;;;;;;7.90;4.70;;;14.90;96.50;;;15.02;71.39;97084.66;5046065;28;20243;-38
2021/10/05 09:53:57;;;;;;;7.38;3.83;;;15.00;96.30;;;15.06;71.35;97069.00;5046282;28;20491;-38
2021/10/05 09:56:29;;;;;;;5.45;4.22;;;15.00;95.30;;;15.10;71.14;97065.72;5044972;28;20061;-38
2021/10/05 09:58:58;;;;;;;5.15;4.00;;;15.10;95.50;;;15.14;70.79;97068.78;5046121;28;20248;-37
2021/10/05 10:01:27;;;;;;;5.53;4.00;;;15.10;94.60;;;15.19;70.81;97084.28;5047789;28;20053;-37
2021/10/05 10:03:56;;;;;;;4.68;3.80;;;15.10;94.70;;;15.25;70.37;97075.41;5045245;28;20057;-37
2021/10/05 10:06:24;;;;;;;8.02;3.63;;;15.30;94.40;;;15.29;70.60;97065.94;5044938;28;20243;-38
2021/10/05 10:08:53;;;;;;;5.85;3.88;;;15.30;94.30;;;15.34;70.37;97061.59;5046409;28;20059;-38
2021/10/05 10:11:23;;;;;;;7.05;3.63;;;15.30;94.30;;;15.38;70.55;97063.88;5045006;28;20056;-37
2021/10/05 10:13:53;;;;;;;5.90;3.65;;;15.30;94.50;;;15.41;70.70;97066.13;5045888;28;20686;-37
2021/10/05 10:16:21;;;;;;;4.30;3.60;;;15.30;93.60;;;15.37;70.38;97060.34;5044025;28;20057;-37
2021/10/05 10:18:58;;;;;;;3.88;3.22;;;15.30;94.60;;;15.39;70.55;97060.16;5059407;28;20064;-38